Time;durP1;ratioP1;P1;durP2;ratioP2;P2;SDS_P1;SDS_P2;PMS_P1;PMS_P2;Temp;Humidity;BMP_temperature;BMP_pressure;BME280_temperature;BME280_humidity;BME280_pressure;Samples;Min_cycle;Max_cycle;Signal;HPM_P1;HPM_P2
2022/11/04 00:01:14;;;;;;;13.98;2.22;;;;;;;8.85;100.00;99228.03;4780890;29;20535;-76
2022/11/04 00:03:39;;;;;;;10.23;1.85;;;;;;;8.86;100.00;99226.88;4783303;29;20099;-76
2022/11/04 00:06:05;;;;;;;9.73;1.85;;;;;;;8.86;100.00;99213.06;4794396;29;20045;-76
2022/11/04 00:08:30;;;;;;;10.18;2.38;;;;;;;8.86;100.00;99219.44;4795100;29;20095;-76
2022/11/04 00:13:41;;;;;;;13.18;1.45;;;;;;;8.85;100.00;99216.97;4793212;29;20030;-76
2022/11/04 00:18:51;;;;;;;12.15;1.88;;;;;;;8.83;100.00;99221.97;4779267;29;20045;-76
2022/11/04 00:29:28;;;;;;;10.00;1.33;;;;;;;8.78;100.00;99211.06;4826405;29;20042;-76
2022/11/04 00:34:38;;;;;;;19.33;1.92;;;;;;;8.76;100.00;99211.34;4794894;29;20035;-76
2022/11/04 00:37:03;;;;;;;11.23;1.50;;;;;;;8.79;100.00;99212.69;4794665;29;20033;-76
2022/11/04 00:39:29;;;;;;;9.95;1.63;;;;;;;8.76;100.00;99202.25;4779894;29;20034;-76
2022/11/04 00:41:54;;;;;;;14.93;1.90;;;;;;;8.76;100.00;99205.81;4793906;29;20099;-76
2022/11/04 00:44:20;;;;;;;12.38;1.95;;;;;;;8.75;100.00;99189.53;4794760;29;20038;-76
2022/11/04 00:46:45;;;;;;;11.13;1.92;;;;;;;8.77;100.00;99198.34;4794863;29;20104;-76
2022/11/04 00:49:11;;;;;;;7.72;2.03;;;;;;;8.73;100.00;99203.69;4794625;29;20054;-77
2022/11/04 00:51:37;;;;;;;7.47;1.73;;;;;;;8.73;100.00;99190.66;4795299;29;20044;-76
2022/11/04 00:54:02;;;;;;;7.22;1.33;;;;;;;8.72;100.00;99191.00;4809985;29;20475;-76
2022/11/04 00:56:28;;;;;;;8.20;1.63;;;;;;;8.70;100.00;99193.25;4765055;29;20488;-76
2022/11/04 00:58:53;;;;;;;7.32;1.25;;;;;;;8.68;100.00;99188.00;4794936;29;20035;-76
2022/11/04 01:01:19;;;;;;;10.00;1.52;;;;;;;8.67;100.00;99194.69;4794931;29;20113;-76
2022/11/04 01:03:45;;;;;;;8.77;1.40;;;;;;;8.68;100.00;99176.94;4779817;29;20026;-76
2022/11/04 01:06:11;;;;;;;8.45;1.80;;;;;;;8.67;100.00;99174.50;4779867;29;20086;-76
2022/11/04 01:08:36;;;;;;;8.68;1.38;;;;;;;8.68;100.00;99178.91;4809523;29;20038;-76
2022/11/04 01:11:03;;;;;;;8.32;1.40;;;;;;;8.66;100.00;99168.16;4807579;29;20566;-76
2022/11/04 01:13:28;;;;;;;7.72;1.50;;;;;;;8.69;100.00;99181.38;4798604;29;20435;-76
2022/11/04 01:15:59;;;;;;;10.05;1.60;;;;;;;8.64;100.00;99175.94;4781590;29;20045;-76
2022/11/04 01:18:24;;;;;;;9.30;1.77;;;;;;;8.62;100.00;99163.56;4799854;29;20027;-76
2022/11/04 01:20:50;;;;;;;8.75;1.35;;;;;;;8.61;100.00;99162.75;4811828;29;20034;-76
2022/11/04 01:23:15;;;;;;;8.90;1.33;;;;;;;8.60;100.00;99157.50;4810483;29;20038;-76
2022/11/04 01:25:41;;;;;;;5.82;1.27;;;;;;;8.55;100.00;99168.69;4794851;29;20042;-76
2022/11/04 01:28:06;;;;;;;8.77;1.88;;;;;;;8.50;100.00;99169.66;4794895;29;20443;-76
2022/11/04 01:30:32;;;;;;;11.18;1.48;;;;;;;8.48;100.00;99171.91;4794556;29;20118;-76
2022/11/04 01:32:57;;;;;;;13.90;1.83;;;;;;;8.45;100.00;99170.56;4794861;29;20527;-76
2022/11/04 01:35:23;;;;;;;7.95;1.52;;;;;;;8.41;100.00;99163.19;4794242;29;20074;-76
2022/11/04 01:37:48;;;;;;;6.53;1.40;;;;;;;8.39;100.00;99159.94;4782672;29;20027;-76
2022/11/04 01:40:14;;;;;;;10.82;1.65;;;;;;;8.39;100.00;99154.41;4812789;29;20030;-76
2022/11/04 01:42:39;;;;;;;11.10;1.75;;;;;;;8.39;100.00;99155.22;4811599;29;20038;-76
2022/11/04 01:45:08;;;;;;;10.00;1.15;;;;;;;8.37;100.00;99159.41;4797919;29;20038;-76
2022/11/04 01:47:46;;;;;;;10.48;1.50;;;;;;;8.38;100.00;99147.19;4794614;29;20043;-76
2022/11/04 01:50:33;;;;;;;7.80;1.40;;;;;;;8.38;100.00;99144.44;4828293;29;20045;-76
2022/11/04 01:53:12;;;;;;;10.73;1.52;;;;;;;8.38;100.00;99147.19;4802772;29;20125;-76
2022/11/04 01:55:40;;;;;;;10.60;2.08;;;;;;;8.32;100.00;99145.69;4815888;29;20038;-76
2022/11/04 01:58:14;;;;;;;10.57;1.23;;;;;;;8.29;100.00;99155.44;4785670;29;20032;-76
2022/11/04 02:00:40;;;;;;;11.75;1.33;;;;;;;8.31;100.00;99157.91;4800649;29;20095;-76
2022/11/04 02:03:08;;;;;;;14.30;1.75;;;;;;;8.26;100.00;99148.56;4785472;29;20128;-76
2022/11/04 02:05:34;;;;;;;14.70;1.85;;;;;;;8.31;100.00;99155.13;4800149;29;20030;-76
2022/11/04 02:08:01;;;;;;;9.98;1.70;;;;;;;8.26;100.00;99159.63;4813063;29;20034;-76
2022/11/04 02:10:27;;;;;;;13.20;1.98;;;;;;;8.22;100.00;99153.09;4815175;29;20042;-76
2022/11/04 02:12:54;;;;;;;17.40;2.42;;;;;;;8.21;100.00;99162.50;4814624;29;20054;-76
2022/11/04 02:15:29;;;;;;;13.73;1.50;;;;;;;8.17;100.00;99161.50;4812752;29;20038;-76
2022/11/04 02:18:00;;;;;;;11.10;1.50;;;;;;;8.19;100.00;99162.03;4800512;29;20442;-76
2022/11/04 02:20:44;;;;;;;11.85;2.15;;;;;;;8.15;100.00;99163.75;4830126;29;20112;-76
2022/11/04 02:23:19;;;;;;;11.93;1.67;;;;;;;8.16;100.00;99159.88;4815373;29;20038;-76
2022/11/04 02:25:53;;;;;;;14.75;2.35;;;;;;;8.09;100.00;99148.41;4830154;29;20058;-76
2022/11/04 02:28:26;;;;;;;9.57;1.45;;;;;;;8.10;100.00;99155.56;4829976;29;20034;-76
2022/11/04 02:30:58;;;;;;;12.05;1.92;;;;;;;8.03;100.00;99156.00;4799851;29;20034;-76
2022/11/04 02:33:33;;;;;;;12.98;2.00;;;;;;;7.98;100.00;99171.88;4829888;29;20048;-76
2022/11/04 02:35:58;;;;;;;12.93;1.70;;;;;;;7.98;100.00;99182.94;4820813;29;20045;-76
2022/11/04 02:38:29;;;;;;;10.30;1.67;;;;;;;7.94;100.00;99165.31;4829869;29;20026;-76
2022/11/04 02:41:10;;;;;;;11.75;1.55;;;;;;;7.88;100.00;99172.09;4814860;29;20044;-76
2022/11/04 02:43:50;;;;;;;7.57;1.40;;;;;;;7.84;100.00;99183.78;4812513;29;20042;-76
2022/11/04 02:46:39;;;;;;;15.40;2.55;;;;;;;7.81;100.00;99183.56;4814766;29;20090;-76
2022/11/04 02:49:11;;;;;;;10.18;1.52;;;;;;;7.76;100.00;99184.50;4813369;29;20057;-76
2022/11/04 02:51:40;;;;;;;9.80;1.65;;;;;;;7.73;100.00;99185.09;4803046;29;20046;-76
2022/11/04 02:54:11;;;;;;;10.90;1.83;;;;;;;7.70;100.00;99188.50;4799931;29;20432;-76
2022/11/04 02:56:39;;;;;;;9.77;1.20;;;;;;;7.65;100.00;99196.88;4809632;29;20038;-76
2022/11/04 02:59:15;;;;;;;11.35;1.75;;;;;;;7.64;100.00;99181.44;4819205;29;20034;-76
2022/11/04 03:01:41;;;;;;;8.68;1.30;;;;;;;7.62;100.00;99186.44;4785156;29;20035;-76
2022/11/04 03:04:14;;;;;;;10.32;1.40;;;;;;;7.58;100.00;99188.19;4811133;29;20168;-76
2022/11/04 03:06:40;;;;;;;8.65;1.30;;;;;;;7.51;100.00;99177.53;4811289;29;20045;-76
2022/11/04 03:09:05;;;;;;;10.25;1.40;;;;;;;7.55;100.00;99178.56;4778335;29;20031;-76
2022/11/04 03:11:31;;;;;;;13.82;1.30;;;;;;;7.47;100.00;99178.47;4797114;29;20041;-76
2022/11/04 03:14:20;;;;;;;9.35;1.45;;;;;;;7.41;100.00;99174.16;4812399;29;20043;-76
2022/11/04 03:16:50;;;;;;;5.60;1.17;;;;;;;7.39;100.00;99175.28;4803868;29;20030;-76
2022/11/04 03:19:37;;;;;;;8.00;1.42;;;;;;;7.33;100.00;99189.50;4827605;29;20120;-76
2022/11/04 03:22:05;;;;;;;8.00;1.42;;;;;;;7.29;100.00;99180.16;4799916;29;20109;-76
2022/11/04 03:24:30;;;;;;;8.07;1.30;;;;;;;7.30;100.00;99179.03;4793052;29;20938;-76
2022/11/04 03:26:59;;;;;;;10.95;2.15;;;;;;;7.24;100.00;99194.88;4781028;29;20046;-76
2022/11/04 03:29:31;;;;;;;13.68;1.85;;;;;;;7.18;100.00;99187.81;4811005;29;20041;-75
2022/11/04 03:32:05;;;;;;;9.93;1.98;;;;;;;7.15;100.00;99178.19;4795779;29;20045;-76
2022/11/04 03:34:31;;;;;;;6.63;1.30;;;;;;;7.14;100.00;99187.63;4810921;29;20039;-76
2022/11/04 03:36:56;;;;;;;6.82;1.35;;;;;;;7.12;100.00;99189.03;4795805;29;20121;-76
2022/11/04 03:39:22;;;;;;;6.78;1.17;;;;;;;7.10;100.00;99194.03;4810665;29;20030;-76
2022/11/04 03:41:58;;;;;;;6.82;1.50;;;;;;;7.07;100.00;99189.13;4808837;29;20038;-76
2022/11/04 03:44:24;;;;;;;8.15;1.20;;;;;;;7.08;100.00;99188.03;4770778;29;20434;-76
2022/11/04 03:46:51;;;;;;;7.50;1.52;;;;;;;7.08;100.00;99193.53;4796179;29;20047;-75
2022/11/04 03:49:17;;;;;;;11.10;1.55;;;;;;;7.09;100.00;99195.16;4789382;29;20058;-76
2022/11/04 03:51:42;;;;;;;7.13;1.77;;;;;;;7.08;100.00;99199.88;4785396;29;20033;-76
2022/11/04 03:54:08;;;;;;;8.30;1.77;;;;;;;7.08;100.00;99204.59;4795656;29;20074;-76
2022/11/04 03:57:09;;;;;;;8.43;1.50;;;;;;;7.09;100.00;99198.75;4810696;29;20044;-76
2022/11/04 03:59:49;;;;;;;8.32;1.55;;;;;;;7.12;100.00;99202.84;4797339;29;20038;-76
2022/11/04 04:02:25;;;;;;;13.45;1.50;;;;;;;7.11;100.00;99195.69;4793733;29;20050;-75
2022/11/04 04:05:01;;;;;;;9.48;1.58;;;;;;;7.14;100.00;99195.09;4781468;29;20042;-75
2022/11/04 04:07:55;;;;;;;7.20;1.20;;;;;;;7.13;100.00;99187.91;4795050;29;20042;-76
2022/11/04 04:10:41;;;;;;;9.80;1.83;;;;;;;7.15;100.00;99183.72;4803601;29;20039;-76
2022/11/04 04:13:26;;;;;;;8.00;1.60;;;;;;;7.18;100.00;99182.28;4795309;29;20042;-76
2022/11/04 04:16:08;;;;;;;8.35;1.55;;;;;;;7.21;100.00;99187.22;4780007;29;20023;-76
2022/11/04 04:18:57;;;;;;;12.43;1.80;;;;;;;7.23;100.00;99197.97;4781699;29;20069;-76
2022/11/04 04:21:25;;;;;;;9.48;1.65;;;;;;;7.25;100.00;99206.78;4810234;29;20049;-76
2022/11/04 04:29:20;;;;;;;8.02;1.70;;;;;;;7.27;100.00;99213.63;4799954;29;20114;-76
2022/11/04 04:31:49;;;;;;;9.75;1.52;;;;;;;7.33;100.00;99215.19;4810335;29;20030;-76
2022/11/04 04:34:28;;;;;;;6.30;1.35;;;;;;;7.33;100.00;99204.13;4777233;29;20030;-76
2022/11/04 04:37:01;;;;;;;11.63;1.73;;;;;;;7.36;100.00;99216.50;4790996;29;20034;-76
2022/11/04 04:45:08;;;;;;;12.32;1.95;;;;;;;7.43;100.00;99222.44;4812694;29;20501;-76
2022/11/04 04:47:39;;;;;;;9.90;2.17;;;;;;;7.46;100.00;99240.34;4780044;29;20042;-76
2022/11/04 04:50:05;;;;;;;16.73;2.08;;;;;;;7.46;100.00;99254.97;4790805;29;20408;-76
2022/11/04 04:52:32;;;;;;;9.85;1.60;;;;;;;7.49;100.00;99265.41;4773105;29;20039;-76
2022/11/04 04:54:58;;;;;;;10.18;1.90;;;;;;;7.50;100.00;99274.53;4790982;29;20037;-76
2022/11/04 04:57:23;;;;;;;7.80;1.20;;;;;;;7.54;100.00;99289.38;4794097;29;20039;-76
2022/11/04 04:59:49;;;;;;;9.18;1.23;;;;;;;7.52;100.00;99284.16;4794895;29;20042;-76
2022/11/04 05:02:14;;;;;;;8.98;1.38;;;;;;;7.53;100.00;99291.31;4809977;29;20064;-76
2022/11/04 05:04:40;;;;;;;9.15;1.65;;;;;;;7.54;100.00;99284.66;4779547;29;20037;-76
2022/11/04 05:07:08;;;;;;;7.80;1.48;;;;;;;7.56;100.00;99312.00;4794603;29;20039;-76
2022/11/04 05:09:34;;;;;;;8.23;1.92;;;;;;;7.58;100.00;99315.28;4790046;29;20038;-76
2022/11/04 05:12:00;;;;;;;5.47;1.30;;;;;;;7.59;100.00;99323.25;4797591;29;20532;-76
2022/11/04 05:14:25;;;;;;;5.20;1.35;;;;;;;7.58;100.00;99332.69;4832136;29;20041;-76
2022/11/04 05:16:51;;;;;;;5.70;1.50;;;;;;;7.60;100.00;99333.22;4802114;29;20030;-76
2022/11/04 05:19:16;;;;;;;9.77;1.70;;;;;;;7.61;100.00;99322.97;4832989;29;20046;-77
2022/11/04 05:21:42;;;;;;;4.38;1.58;;;;;;;7.61;100.00;99329.31;4801942;29;20116;-77
2022/11/04 05:24:07;;;;;;;5.03;1.75;;;;;;;7.62;100.00;99313.56;4816973;29;20038;-77
2022/11/04 05:26:33;;;;;;;7.65;1.63;;;;;;;7.63;100.00;99319.88;4800269;29;20663;-76
2022/11/04 05:28:58;;;;;;;8.20;1.67;;;;;;;7.64;100.00;99324.31;4812971;29;20037;-76
2022/11/04 05:31:24;;;;;;;7.60;1.67;;;;;;;7.61;100.00;99334.03;4828013;29;20034;-76
2022/11/04 05:33:49;;;;;;;8.48;1.45;;;;;;;7.62;100.00;99324.59;4812749;29;20041;-76
2022/11/04 05:36:15;;;;;;;5.65;1.40;;;;;;;7.63;100.00;99333.72;4797917;29;20034;-76
2022/11/04 05:38:41;;;;;;;5.43;1.70;;;;;;;7.60;100.00;99340.66;4828853;29;20079;-76
2022/11/04 05:41:07;;;;;;;10.38;1.75;;;;;;;7.57;100.00;99353.13;4792146;29;20615;-76
2022/11/04 05:43:33;;;;;;;9.48;2.17;;;;;;;7.54;100.00;99367.56;4794380;29;20486;-76
2022/11/04 05:45:59;;;;;;;6.50;2.10;;;;;;;7.50;100.00;99374.00;4778741;29;20038;-76
2022/11/04 05:48:24;;;;;;;8.13;2.15;;;;;;;7.47;100.00;99380.13;4800286;29;20046;-76
2022/11/04 05:50:50;;;;;;;8.07;2.10;;;;;;;7.45;100.00;99396.19;4812137;29;20030;-76
2022/11/04 05:53:15;;;;;;;6.43;1.92;;;;;;;7.43;100.00;99406.69;4830354;29;20485;-76
2022/11/04 05:55:41;;;;;;;9.45;1.90;;;;;;;7.39;100.00;99412.00;4800541;29;20038;-76
2022/11/04 05:58:06;;;;;;;5.85;1.83;;;;;;;7.35;100.00;99431.13;4806522;29;20042;-76
2022/11/04 06:00:32;;;;;;;5.95;1.80;;;;;;;7.33;100.00;99430.59;4830452;29;20448;-76
2022/11/04 06:02:57;;;;;;;6.15;1.52;;;;;;;7.36;100.00;99454.06;4782789;29;20512;-76
2022/11/04 06:05:23;;;;;;;8.43;2.10;;;;;;;7.32;100.00;99467.63;4814274;29;20034;-77
2022/11/04 06:07:48;;;;;;;10.85;1.67;;;;;;;7.28;100.00;99463.00;4829935;29;20488;-77
2022/11/04 06:10:14;;;;;;;6.38;1.50;;;;;;;7.30;100.00;99458.81;4816163;29;20029;-76
2022/11/04 06:12:39;;;;;;;7.93;1.90;;;;;;;7.35;100.00;99468.97;4830519;29;20518;-76
2022/11/04 06:15:05;;;;;;;8.55;1.70;;;;;;;7.34;100.00;99470.09;4818410;29;20041;-76
2022/11/04 06:17:31;;;;;;;8.20;1.98;;;;;;;7.28;100.00;99480.38;4830527;29;20431;-76
2022/11/04 06:19:57;;;;;;;7.93;1.58;;;;;;;7.29;100.00;99489.50;4815175;29;20042;-76
2022/11/04 06:22:22;;;;;;;9.35;1.67;;;;;;;7.27;100.00;99498.09;4814109;29;20034;-76
2022/11/04 06:24:47;;;;;;;5.13;1.15;;;;;;;7.28;100.00;99501.66;4830279;29;20030;-76
2022/11/04 06:27:13;;;;;;;10.63;1.77;;;;;;;7.24;100.00;99501.41;4830198;29;20034;-76
2022/11/04 06:29:40;;;;;;;12.68;1.77;;;;;;;7.23;100.00;99513.59;4799958;29;20042;-76
2022/11/04 06:32:08;;;;;;;13.68;1.55;;;;;;;7.24;100.00;99517.16;4800083;29;20600;-76
2022/11/04 06:34:34;;;;;;;6.70;1.30;;;;;;;7.22;100.00;99519.44;4789792;29;20090;-76
2022/11/04 06:36:59;;;;;;;8.93;1.40;;;;;;;7.24;100.00;99515.22;4803266;29;20491;-76
2022/11/04 06:39:24;;;;;;;10.55;1.50;;;;;;;7.26;100.00;99521.28;4797008;29;20532;-76
2022/11/04 06:41:50;;;;;;;9.02;1.83;;;;;;;7.31;100.00;99540.56;4807730;29;20034;-76
2022/11/04 06:44:15;;;;;;;10.30;1.67;;;;;;;7.27;100.00;99556.09;4784092;29;20034;-76
2022/11/04 06:46:41;;;;;;;11.13;1.83;;;;;;;7.30;100.00;99561.00;4814941;29;20171;-75
2022/11/04 06:49:18;;;;;;;7.32;1.45;;;;;;;7.28;100.00;99571.53;4829024;29;20050;-75
2022/11/04 06:51:44;;;;;;;8.10;1.02;;;;;;;7.35;100.00;99574.75;4799862;29;20046;-75
2022/11/04 06:54:10;;;;;;;6.55;1.42;;;;;;;7.39;100.00;99586.84;4814461;29;20034;-75
2022/11/04 06:56:36;;;;;;;10.45;1.50;;;;;;;7.42;100.00;99595.69;4796470;29;20026;-75
2022/11/04 06:59:01;;;;;;;9.82;1.40;;;;;;;7.41;100.00;99602.31;4795642;29;20115;-75
2022/11/04 07:01:29;;;;;;;8.07;1.40;;;;;;;7.44;100.00;99621.03;4814485;29;20440;-76
2022/11/04 07:03:57;;;;;;;8.02;1.23;;;;;;;7.47;100.00;99626.00;4799706;29;20091;-75
2022/11/04 07:06:22;;;;;;;7.93;1.35;;;;;;;7.48;100.00;99638.69;4798205;29;20090;-75
2022/11/04 07:08:48;;;;;;;7.53;1.23;;;;;;;7.53;100.00;99639.47;4814179;29;20042;-75
2022/11/04 07:11:14;;;;;;;7.63;1.10;;;;;;;7.56;100.00;99649.91;4796644;29;20030;-70
2022/11/04 07:13:40;;;;;;;9.63;1.67;;;;;;;7.57;100.00;99659.03;4811454;29;20535;-76
2022/11/04 07:16:06;;;;;;;9.68;1.42;;;;;;;7.61;100.00;99660.09;4811035;29;20106;-75
2022/11/04 07:18:32;;;;;;;5.55;1.20;;;;;;;7.66;100.00;99673.84;4815547;29;20033;-76
2022/11/04 07:20:57;;;;;;;4.32;0.90;;;;;;;7.68;100.00;99681.84;4816572;29;20092;-75
2022/11/04 07:23:23;;;;;;;7.45;1.08;;;;;;;7.71;100.00;99689.53;4786785;29;20065;-75
2022/11/04 07:25:49;;;;;;;7.88;1.38;;;;;;;7.73;100.00;99701.13;4802440;29;20040;-76
2022/11/04 07:28:15;;;;;;;10.18;1.77;;;;;;;7.73;100.00;99709.41;4814865;29;20087;-75
2022/11/04 07:30:40;;;;;;;8.05;1.25;;;;;;;7.75;100.00;99710.75;4845016;29;20038;-75
2022/11/04 07:33:05;;;;;;;8.75;1.85;;;;;;;7.79;100.00;99716.53;4822703;29;20490;-75
2022/11/04 07:35:31;;;;;;;4.93;1.10;;;;;;;7.81;100.00;99725.34;4808257;29;20026;-75
2022/11/04 07:37:57;;;;;;;7.90;1.20;;;;;;;7.83;100.00;99731.41;4827428;29;20044;-75
2022/11/04 07:40:22;;;;;;;12.00;1.73;;;;;;;7.83;100.00;99734.19;4810333;29;20543;-76
2022/11/04 07:42:48;;;;;;;9.85;1.50;;;;;;;7.87;100.00;99757.34;4812818;29;20038;-75
2022/11/04 07:45:13;;;;;;;9.63;1.80;;;;;;;7.88;100.00;99770.03;4812711;29;20049;-75
2022/11/04 07:47:39;;;;;;;9.77;1.75;;;;;;;7.93;100.00;99781.03;4792548;29;20054;-76
2022/11/04 07:50:04;;;;;;;11.02;1.65;;;;;;;7.97;100.00;99795.94;4792358;29;20054;-75
2022/11/04 07:52:30;;;;;;;8.57;1.10;;;;;;;7.99;100.00;99809.44;4783449;29;20042;-75
2022/11/04 07:54:55;;;;;;;8.88;1.30;;;;;;;8.02;100.00;99798.66;4813697;29;20034;-76
2022/11/04 07:57:21;;;;;;;8.32;1.40;;;;;;;8.04;100.00;99810.22;4812720;29;20031;-75
2022/11/04 07:59:47;;;;;;;9.60;1.83;;;;;;;8.08;100.00;99827.06;4805071;29;20042;-75
2022/11/04 08:02:12;;;;;;;10.48;1.30;;;;;;;8.13;100.00;99831.69;4826455;29;20054;-75
2022/11/04 08:04:38;;;;;;;10.55;1.50;;;;;;;8.15;100.00;99835.81;4813227;29;20086;-75
2022/11/04 08:07:06;;;;;;;8.35;1.15;;;;;;;8.19;100.00;99844.34;4828583;29;20034;-75
2022/11/04 08:09:32;;;;;;;10.13;1.38;;;;;;;8.23;100.00;99854.53;4808117;29;20041;-75
2022/11/04 08:11:57;;;;;;;12.57;1.50;;;;;;;8.28;100.00;99860.00;4813136;29;20613;-75
2022/11/04 08:14:23;;;;;;;10.32;1.35;;;;;;;8.34;100.00;99865.50;4813172;29;20038;-75
2022/11/04 08:16:50;;;;;;;10.18;1.17;;;;;;;8.39;100.00;99866.28;4782452;29;20074;-75
2022/11/04 08:19:15;;;;;;;10.52;1.23;;;;;;;8.45;100.00;99878.94;4818313;29;20037;-75
2022/11/04 08:21:41;;;;;;;12.77;1.38;;;;;;;8.51;100.00;99879.69;4810343;29;20511;-75
2022/11/04 08:24:06;;;;;;;9.65;1.23;;;;;;;8.57;100.00;99891.53;4795077;29;20097;-75
2022/11/04 08:26:32;;;;;;;7.45;1.10;;;;;;;8.62;100.00;99903.34;4810559;29;20041;-75
2022/11/04 08:28:58;;;;;;;8.15;1.17;;;;;;;8.67;100.00;99908.84;4839100;29;20041;-75
2022/11/04 08:31:25;;;;;;;6.03;1.05;;;;;;;8.73;100.00;99915.94;4812973;29;20030;-75
2022/11/04 08:33:51;;;;;;;8.48;1.40;;;;;;;8.81;100.00;99924.72;4795233;29;20069;-75
2022/11/04 08:36:22;;;;;;;11.65;1.67;;;;;;;8.86;100.00;99936.56;4802129;29;20060;-75
2022/11/04 08:38:48;;;;;;;6.70;1.25;;;;;;;8.94;100.00;99940.59;4842514;29;20030;-76
2022/11/04 08:41:14;;;;;;;8.85;1.25;;;;;;;9.02;100.00;99948.25;4828007;29;20492;-75
2022/11/04 08:43:40;;;;;;;10.18;1.73;;;;;;;9.13;100.00;99955.28;4811345;29;20479;-76
2022/11/04 08:46:07;;;;;;;8.95;1.17;;;;;;;9.22;100.00;99960.16;4784844;29;20034;-76
2022/11/04 08:48:34;;;;;;;7.05;1.23;;;;;;;9.28;100.00;99965.38;4809135;29;20523;-76
2022/11/04 08:51:01;;;;;;;11.73;1.27;;;;;;;9.36;100.00;99980.47;4801815;29;20033;-75
2022/11/04 08:53:27;;;;;;;5.97;1.20;;;;;;;9.43;100.00;99980.94;4831553;29;20033;-76
2022/11/04 08:55:54;;;;;;;9.10;1.63;;;;;;;9.49;100.00;99982.50;4816817;29;20090;-76
2022/11/04 08:58:20;;;;;;;5.97;1.30;;;;;;;9.57;100.00;99990.16;4815313;29;20388;-76
2022/11/04 09:00:46;;;;;;;9.35;1.75;;;;;;;9.67;100.00;99996.66;4816874;29;20544;-75
2022/11/04 09:03:12;;;;;;;10.38;1.83;;;;;;;9.75;100.00;100002.38;4784222;29;20034;-76
2022/11/04 09:05:43;;;;;;;8.50;1.77;;;;;;;9.86;100.00;100003.00;4831306;29;20045;-75
2022/11/04 09:08:13;;;;;;;7.78;1.30;;;;;;;9.93;100.00;100016.50;4798877;29;20030;-76
2022/11/04 09:10:43;;;;;;;7.05;1.30;;;;;;;10.04;100.00;100021.59;4813336;29;20038;-76
2022/11/04 09:13:10;;;;;;;10.13;1.95;;;;;;;10.12;100.00;100020.09;4816395;29;20106;-75
2022/11/04 09:15:36;;;;;;;13.32;1.73;;;;;;;10.21;100.00;100034.09;4816526;29;20041;-76
2022/11/04 09:18:01;;;;;;;9.50;1.58;;;;;;;10.23;100.00;100040.16;4824486;29;20029;-75
2022/11/04 09:20:27;;;;;;;6.53;1.60;;;;;;;10.26;100.00;100042.34;4820059;29;20409;-75
2022/11/04 09:22:54;;;;;;;11.55;1.92;;;;;;;10.29;100.00;100055.63;4816935;29;20485;-75
2022/11/04 09:25:20;;;;;;;13.15;1.90;;;;;;;10.28;100.00;100059.53;4820046;29;20030;-75
2022/11/04 09:27:45;;;;;;;16.30;2.40;;;;;;;10.28;100.00;100070.66;4819840;29;20038;-74
2022/11/04 09:30:11;;;;;;;17.08;2.33;;;;;;;10.27;100.00;100067.03;4802787;29;20043;-74
2022/11/04 09:32:36;;;;;;;13.40;2.05;;;;;;;10.29;100.00;100069.50;4822937;29;20040;-74
2022/11/04 09:35:03;;;;;;;16.52;2.08;;;;;;;10.31;100.00;100080.28;4804036;29;20041;-74
2022/11/04 09:37:29;;;;;;;15.90;2.08;;;;;;;10.33;100.00;100075.28;4815648;29;20034;-73
2022/11/04 09:39:54;;;;;;;16.20;2.00;;;;;;;10.33;100.00;100089.16;4830695;29;20037;-75
2022/11/04 09:42:32;;;;;;;8.73;1.50;;;;;;;10.36;100.00;100114.34;4829074;29;20041;-75
2022/11/04 09:45:08;;;;;;;12.65;2.25;;;;;;;10.40;100.00;100111.81;4830896;29;20049;-75
2022/11/04 09:47:34;;;;;;;11.18;1.75;;;;;;;10.39;100.00;100122.09;4800836;29;20566;-75
2022/11/04 09:49:59;;;;;;;13.60;1.77;;;;;;;10.45;100.00;100125.59;4815586;29;20057;-75
2022/11/04 09:52:30;;;;;;;12.95;2.38;;;;;;;10.50;100.00;100119.94;4800289;29;20034;-75
2022/11/04 09:55:32;;;;;;;12.52;1.98;;;;;;;10.60;100.00;100119.78;4830743;29;20105;-75
2022/11/04 09:57:57;;;;;;;11.02;1.92;;;;;;;10.65;100.00;100133.59;4829439;29;20129;-75
2022/11/04 10:00:23;;;;;;;13.43;1.90;;;;;;;10.66;100.00;100126.91;4800632;29;20094;-75
2022/11/04 10:03:07;;;;;;;14.52;2.25;;;;;;;10.71;100.00;100137.09;4815573;29;20514;-75
2022/11/04 10:05:53;;;;;;;10.75;2.17;;;;;;;10.77;100.00;100152.53;4819985;29;20432;-75
2022/11/04 10:08:37;;;;;;;12.75;1.60;;;;;;;10.83;100.00;100156.06;4816339;29;20037;-74
2022/11/04 10:11:11;;;;;;;15.90;2.00;;;;;;;10.88;100.00;100165.13;4829896;29;20041;-75
2022/11/04 10:13:52;;;;;;;13.35;2.30;;;;;;;10.92;100.00;100177.31;4815433;29;20037;-75
2022/11/04 10:16:20;;;;;;;13.48;1.70;;;;;;;10.96;100.00;100183.06;4830289;29;20467;-75
2022/11/04 10:18:52;;;;;;;17.05;1.85;;;;;;;11.00;100.00;100186.03;4814951;29;20034;-74
2022/11/04 10:21:35;;;;;;;10.55;1.55;;;;;;;11.05;100.00;100174.84;4846634;29;20045;-75
2022/11/04 10:24:15;;;;;;;17.20;2.30;;;;;;;11.07;100.00;100170.63;4815248;29;20042;-75
2022/11/04 10:26:45;;;;;;;16.40;2.25;;;;;;;11.12;100.00;100172.50;4831375;29;20542;-75
2022/11/04 10:29:51;;;;;;;14.13;2.08;;;;;;;11.17;100.00;100152.94;4829816;29;20038;-74
2022/11/04 10:32:23;;;;;;;9.32;1.85;;;;;;;11.23;100.00;100165.63;4793438;29;20039;-74
2022/11/04 10:34:48;;;;;;;16.63;2.20;;;;;;;11.25;100.00;100174.47;4744877;30;20051;-75
2022/11/04 10:37:13;;;;;;;10.20;1.60;;;;;;;11.31;100.00;100183.53;4788987;30;20119;-75
2022/11/04 10:39:43;;;;;;;10.90;2.08;;;;;;;11.36;100.00;100209.28;4774301;30;20043;-75
2022/11/04 10:42:19;;;;;;;10.13;1.85;;;;;;;11.38;100.00;100220.94;4773028;30;20067;-75
2022/11/04 10:44:45;;;;;;;11.07;1.88;;;;;;;11.50;100.00;100225.16;4789445;30;20130;-75
2022/11/04 10:47:20;;;;;;;11.38;2.05;;;;;;;11.52;100.00;100245.97;4774351;30;20146;-75
2022/11/04 10:50:24;;;;;;;15.38;2.10;;;;;;;11.56;100.00;100240.63;4768822;29;20758;-75
2022/11/04 10:52:50;;;;;;;10.90;2.03;;;;;;;11.60;100.00;100259.19;4779512;29;20043;-75
2022/11/04 10:55:32;;;;;;;12.43;2.22;;;;;;;11.61;100.00;100268.34;4789271;30;20421;-75
2022/11/04 10:57:57;;;;;;;13.85;2.00;;;;;;;11.66;100.00;100261.88;4759611;30;20040;-74
2022/11/04 11:00:37;;;;;;;10.30;1.83;;;;;;;11.67;100.00;100253.19;4789106;30;20063;-75
2022/11/04 11:03:03;;;;;;;18.88;2.60;;;;;;;11.71;100.00;100270.13;4785261;29;20121;-75
2022/11/04 11:05:28;;;;;;;12.27;2.42;;;;;;;11.76;100.00;100281.16;4784121;29;20095;-75
2022/11/04 11:07:55;;;;;;;12.35;2.20;;;;;;;11.81;100.00;100286.59;4829559;29;20030;-75
2022/11/04 11:10:25;;;;;;;14.02;2.40;;;;;;;11.83;100.00;100285.16;4833417;29;20060;-75
2022/11/04 11:13:02;;;;;;;13.82;2.58;;;;;;;11.88;100.00;100289.03;4807031;29;20060;-75
2022/11/04 11:15:31;;;;;;;11.65;2.13;;;;;;;11.95;100.00;100298.63;4828030;29;20038;-75
2022/11/04 11:18:16;;;;;;;15.10;2.03;;;;;;;11.94;100.00;100296.13;4832780;29;20049;-75
2022/11/04 11:20:48;;;;;;;11.02;2.20;;;;;;;12.00;100.00;100303.25;4827577;29;20037;-75
2022/11/04 11:23:37;;;;;;;19.23;2.80;;;;;;;12.01;100.00;100313.25;4832557;29;20068;-75
2022/11/04 11:26:07;;;;;;;14.45;2.33;;;;;;;12.06;100.00;100310.34;4848278;29;20076;-75
2022/11/04 11:28:36;;;;;;;18.35;2.95;;;;;;;12.06;100.00;100319.53;4832771;29;20033;-75
2022/11/04 11:31:13;;;;;;;10.20;2.20;;;;;;;12.14;100.00;100317.97;4819484;29;20121;-75
2022/11/04 11:33:47;;;;;;;16.70;2.78;;;;;;;12.19;100.00;100326.22;4794611;29;20069;-75
2022/11/04 11:36:32;;;;;;;12.57;2.30;;;;;;;12.21;100.00;100346.25;4828054;29;20064;-76
2022/11/04 11:39:02;;;;;;;12.75;2.90;;;;;;;12.24;100.00;100350.38;4783947;29;20026;-76
2022/11/04 11:41:31;;;;;;;15.73;2.83;;;;;;;12.28;100.00;100359.75;4814128;29;20092;-75
2022/11/04 11:44:18;;;;;;;14.65;2.38;;;;;;;12.34;100.00;100354.91;4811960;29;20235;-75
2022/11/04 11:46:49;;;;;;;11.50;2.15;;;;;;;12.37;100.00;100354.28;4831133;29;20094;-75
2022/11/04 11:49:23;;;;;;;11.73;2.28;;;;;;;12.42;100.00;100351.38;4831739;29;20113;-76
2022/11/04 11:51:49;;;;;;;15.55;2.40;;;;;;;12.43;100.00;100339.13;4833944;29;20055;-76
2022/11/04 11:54:16;;;;;;;14.80;2.20;;;;;;;12.45;100.00;100346.03;4820163;29;20038;-75
2022/11/04 11:56:50;;;;;;;19.23;2.65;;;;;;;12.44;100.00;100360.25;4828734;29;20041;-76
2022/11/04 11:59:22;;;;;;;15.90;2.50;;;;;;;12.46;100.00;100356.03;4828394;29;20566;-75
2022/11/04 12:01:53;;;;;;;12.05;2.00;;;;;;;12.48;100.00;100358.50;4813448;29;20037;-76